Latest Weather Observations for Oodnadatta

IDS60801

Issued at 11:01 pm CST Saturday 28 May 2016 (issued every 30 minutes, with the page automatically refreshed every 10 minutes)

About weather observations | Map of weather stations | Latest weather observations for SA | Other Formats
Station Details ID: 017043 Name: OODNADATTA AIRPORT Lat: -27.56 Lon: 135.45 Height: 116.5 m
Data from the previous 72 hours. | See also: Recent months at Oodnadatta
Date/Time
CST
Temp
°C
App
Temp
°C
Dew
Point
Rel
Hum
%
Delta-T
°C
Wind Press
QNH
hPa
Press
MSL
hPa
Rain
since 9 am
mm
Dir
 
Spd
km/h
Gust
km/h
Spd
kts
Gust
kts
28/11:00pm 10.5 7.5 7.6 82 1.4 NE 13 13 7 7 1018.9 1018.8 0.0
28/10:30pm 10.4 8.1 7.6 83 1.3 SSW 9 11 5 6 1019.1 1019.0 0.0
28/10:00pm 11.4 9.6 8.1 80 1.6 SSW 7 7 4 4 1019.5 1019.3 0.0
28/09:30pm 11.7 11.2 7.8 77 1.9 CALM 0 0 0 0 1019.7 1019.5 0.0
28/09:00pm 13.1 11.8 7.8 70 2.6 SSW 4 6 2 3 1019.9 1019.7 0.0
28/08:30pm 13.7 11.9 7.9 68 2.9 SSW 7 7 4 4 1019.3 1019.2 0.0
28/08:00pm 14.5 13.8 7.1 61 3.6 CALM 0 0 0 0 1019.3 1019.2 0.0
28/07:30pm 15.1 13.8 7.6 61 3.7 SSW 4 7 2 4 1019.1 1019.0 0.0
28/07:00pm 15.5 13.7 7.0 57 4.2 SSW 6 7 3 4 1018.8 1018.7 0.0
28/06:30pm 15.9 14.0 7.4 57 4.2 SSW 7 9 4 5 1018.6 1018.5 0.0
28/06:00pm 17.0 14.6 6.8 51 5.1 SSW 9 11 5 6 1018.5 1018.4 0.0
28/05:30pm 17.9 16.4 6.7 48 5.6 S 4 9 2 5 1018.1 1018.0 0.0
28/05:00pm 18.3 16.0 5.8 44 6.2 SSW 7 15 4 8 1017.5 1017.4 0.0
28/04:30pm 18.7 16.2 6.5 45 6.1 WSW 9 13 5 7 1017.6 1017.5 0.0
28/04:00pm 18.9 15.6 6.4 44 6.3 W 13 19 7 10 1017.8 1017.7 0.0
28/03:30pm 18.9 15.9 6.1 43 6.4 WNW 11 20 6 11 1017.9 1017.8 0.0
28/03:00pm 18.6 15.8 6.8 46 5.9 WSW 11 17 6 9 1018.3 1018.2 0.0
28/02:30pm 18.6 16.2 6.8 46 5.9 SW 9 20 5 11 1018.0 1017.9 0.0
28/02:00pm 18.2 14.6 6.7 47 5.8 SSW 15 22 8 12 1018.6 1018.5 0.0
28/01:30pm 17.9 14.2 6.4 47 5.7 SW 15 22 8 12 1018.9 1018.8 0.0
28/01:00pm 17.4 14.1 6.6 49 5.4 SSW 13 20 7 11 1019.5 1019.3 0.0
28/12:30pm 16.7 14.1 5.9 49 5.3 SSW 9 17 5 9 1020.0 1019.8 0.0
28/12:00pm 16.4 13.4 6.0 50 5.1 S 11 15 6 8 1020.5 1020.3 0.0
28/11:30am 16.4 14.0 6.8 53 4.7 SSE 9 17 5 9 1020.9 1020.7 0.0
28/11:00am 15.8 13.9 6.8 55 4.4 SSE 6 15 3 8 1021.1 1020.9 0.0
28/10:30am 14.8 13.7 8.3 65 3.3 WNW 4 9 2 5 1021.6 1021.4 0.0
28/10:00am 14.4 14.2 9.2 71 2.7 CALM 0 6 0 3 1022.1 1021.9 0.0
28/09:30am 13.0 12.6 8.1 72 2.4 CALM 0 0 0 0 1022.2 1022.0 0.0
28/09:00am 11.3 10.8 7.8 79 1.7 CALM 0 0 0 0 1022.1 1021.9 0.0
28/08:30am 9.9 9.3 7.2 83 1.3 CALM 0 0 0 0 1021.8 1021.6 0.0
28/08:00am 8.1 6.1 6.2 88 0.9 WNW 6 7 3 4 1021.5 1021.3 0.0
28/07:30am 7.6 5.3 5.9 89 0.8 WNW 7 9 4 5 1021.0 1020.8 0.0
28/07:00am 7.0 3.9 5.5 90 0.7 WNW 11 11 6 6 1020.5 1020.3 0.0
28/06:30am 7.5 4.7 5.3 86 1.0 N 9 9 5 5 1020.3 1020.1 0.0
28/06:00am 8.5 6.4 6.0 84 1.1 N 6 7 3 4 1020.1 1019.9 0.0
28/05:30am 8.1 5.1 5.9 86 1.0 NNW 11 13 6 7 1019.9 1019.7 0.0
28/05:00am 8.5 6.4 6.0 84 1.1 SSW 6 9 3 5 1019.8 1019.6 0.0
28/04:30am 9.0 6.9 5.6 79 1.5 SSW 6 9 3 5 1019.7 1019.5 0.0
28/04:00am 9.6 6.6 6.0 78 1.7 SSW 11 13 6 7 1019.6 1019.4 0.0
28/03:30am 10.4 7.4 6.0 74 2.0 SSW 11 13 6 7 1019.5 1019.3 0.0
28/03:00am 10.7 7.3 5.9 72 2.2 SW 13 17 7 9 1019.6 1019.4 0.0
28/02:30am 11.3 7.5 5.6 68 2.6 SW 15 17 8 9 1019.6 1019.4 0.0
28/02:00am 11.7 7.9 6.0 68 2.7 SW 15 19 8 10 1019.7 1019.5 0.0
28/01:30am 10.9 9.6 5.9 71 2.3 W 2 9 1 5 1019.6 1019.4 0.0
28/01:00am 9.3 6.7 6.2 81 1.4 W 9 9 5 5 1019.3 1019.2 0.0
28/12:30am 9.8 6.9 6.5 80 1.5 NW 11 13 6 7 1019.6 1019.4 0.0
28/12:00am 10.4 7.1 6.4 76 1.9 W 13 15 7 8 1019.7 1019.5 0.0
 
Date/Time
CST
Temp
°C
App
Temp
°C
Dew
Point
Rel
Hum
%
Delta-T
°C
Wind Press
QNH
hPa
Press
MSL
hPa
Rain
since 9 am
mm
Dir
 
Spd
km/h
Gust
km/h
Spd
kts
Gust
kts
27/11:30pm 10.2 7.6 6.2 76 1.9 WNW 9 13 5 7 1019.8 1019.6 0.0
27/11:00pm 10.9 7.6 6.5 74 2.1 WNW 13 15 7 8 1019.9 1019.7 0.0
27/10:30pm 11.7 8.4 6.4 70 2.5 W 13 15 7 8 1019.9 1019.7 0.0
27/10:00pm 11.9 8.6 6.6 70 2.5 W 13 17 7 9 1019.7 1019.5 0.0
27/09:30pm 11.7 8.5 7.0 73 2.3 W 13 13 7 7 1019.7 1019.5 0.0
27/09:00pm 12.3 9.1 7.0 70 2.6 W 13 15 7 8 1019.7 1019.5 0.0
27/08:30pm 12.4 9.6 7.1 70 2.6 WNW 11 13 6 7 1019.5 1019.3 0.0
27/08:00pm 13.2 10.8 7.2 67 2.9 W 9 11 5 6 1019.1 1019.0 0.0
27/07:30pm 14.2 11.2 6.1 58 3.9 W 11 13 6 7 1018.8 1018.7 0.0
27/07:00pm 14.9 11.5 5.7 54 4.4 WSW 13 15 7 8 1018.7 1018.6 0.0
27/06:30pm 15.6 12.4 5.2 50 4.9 WSW 11 13 6 7 1018.6 1018.5 0.0
27/06:00pm 16.5 12.5 4.9 46 5.5 WSW 15 17 8 9 1018.4 1018.3 0.0
27/05:30pm 18.0 12.8 3.5 38 6.8 WSW 20 26 11 14 1018.1 1018.0 0.0
27/05:00pm 19.0 13.0 3.6 36 7.3 SW 24 33 13 18 1017.7 1017.6 0.0
27/04:30pm 19.3 13.0 3.5 35 7.5 WSW 26 32 14 17 1017.8 1017.7 0.0
27/04:00pm 19.5 13.3 4.4 37 7.3 WSW 26 37 14 20 1017.7 1017.6 0.0
27/03:30pm 19.1 12.8 5.6 41 6.6 WSW 28 35 15 19 1017.7 1017.6 0.0
27/03:00pm 19.4 12.5 4.7 38 7.1 SW 30 35 16 19 1017.8 1017.7 0.0
27/02:30pm 19.6 13.2 7.0 44 6.4 SW 30 39 16 21 1018.1 1018.0 0.0
27/02:00pm 19.4 13.8 7.2 45 6.2 SW 26 39 14 21 1018.0 1017.9 0.0
27/01:30pm 18.5 13.5 8.2 51 5.3 SW 24 32 13 17 1018.4 1018.3 0.0
27/01:00pm 18.6 12.9 8.3 51 5.3 SW 28 37 15 20 1018.9 1018.8 0.0
27/12:30pm 19.0 14.0 9.5 54 5.0 SW 26 35 14 19 1019.1 1019.0 0.0
27/12:00pm 17.9 12.8 9.3 57 4.5 SW 26 33 14 18 1019.7 1019.5 0.0
27/11:30am 17.7 12.2 9.1 57 4.5 SW 28 35 15 19 1020.1 1019.9 0.0
27/11:00am 17.7 12.3 9.6 59 4.3 SW 28 37 15 20 1020.3 1020.1 0.0
27/10:30am 17.1 13.0 10.0 63 3.8 SW 22 28 12 15 1020.4 1020.2 0.0
27/10:00am 16.2 11.9 9.4 64 3.5 SW 22 28 12 15 1020.1 1019.9 0.0
27/09:30am 15.9 12.2 10.0 68 3.1 SW 20 28 11 15 1020.6 1020.4 0.0
27/09:00am 15.3 12.3 10.7 74 2.4 SW 17 22 9 12 1020.1 1019.9 4.0
27/08:30am 15.0 12.2 11.4 79 1.9 SW 17 24 9 13 1019.5 1019.3 4.0
27/08:00am 14.9 11.8 11.5 80 1.8 SW 19 22 10 12 1019.5 1019.3 4.0
27/07:30am 14.9 11.6 11.7 81 1.7 SW 20 24 11 13 1019.1 1019.0 4.0
27/07:00am 14.9 11.3 12.0 83 1.6 WSW 22 30 12 16 1018.6 1018.5 4.0
27/06:30am 14.9 12.1 12.6 86 1.3 WSW 19 22 10 12 1018.0 1017.9 4.0
27/06:00am 14.8 12.4 12.7 87 1.2 WSW 17 20 9 11 1017.6 1017.5 4.0
27/05:30am 14.6 13.0 12.8 89 1.0 WSW 13 17 7 9 1017.5 1017.4 4.0
27/05:00am 14.7 13.5 12.9 89 1.0 SW 11 15 6 8 1017.1 1017.0 4.0
27/04:30am 15.0 12.7 12.9 87 1.2 SW 17 22 9 12 1016.9 1016.8 4.0
27/04:00am 15.1 12.9 13.3 89 1.0 SW 17 22 9 12 1016.8 1016.7 4.0
27/03:30am 14.8 14.0 14.0 95 0.5 W 11 15 6 8 1016.7 1016.6 4.0
27/03:00am 14.8 14.4 14.0 95 0.5 WSW 9 11 5 6 1016.4 1016.3 4.0
27/02:30am 14.8 14.4 14.0 95 0.5 WSW 9 11 5 6 1016.8 1016.7 4.0
27/02:00am 14.7 14.3 14.1 96 0.3 SSW 9 13 5 7 1016.8 1016.7 4.0
27/01:30am 14.7 14.6 13.9 95 0.5 SSW 7 9 4 5 1016.4 1016.3 4.0
27/01:00am 14.6 14.7 13.8 95 0.5 SSE 6 7 3 4 1016.4 1016.3 4.0
27/12:30am 14.6 14.7 13.8 95 0.4 SSE 6 7 3 4 1016.3 1016.2 4.0
27/12:00am 14.4 15.6 13.8 96 0.3 CALM 0 6 0 3 1016.4 1016.3 4.0
 
Date/Time
CST
Temp
°C
App
Temp
°C
Dew
Point
Rel
Hum
%
Delta-T
°C
Wind Press
QNH
hPa
Press
MSL
hPa
Rain
since 9 am
mm
Dir
 
Spd
km/h
Gust
km/h
Spd
kts
Gust
kts
26/11:30pm 14.3 13.5 14.0 98 0.2 S 11 17 6 9 1016.4 1016.3 3.8
26/11:00pm 14.4 11.9 13.6 95 0.4 S 19 24 10 13 1016.5 1016.4 2.0
26/10:30pm 15.6 13.8 13.4 87 1.2 SSW 15 20 8 11 1016.4 1016.3 0.0
26/10:00pm 15.7 13.2 13.4 86 1.3 S 19 24 10 13 1016.2 1016.1 0.0
26/09:30pm 16.1 14.0 13.6 85 1.4 S 17 24 9 13 1015.8 1015.6 0.0
26/09:00pm 16.2 13.4 13.1 82 1.7 S 20 24 11 13 1015.7 1015.5 0.0
26/08:30pm 17.3 13.0 12.0 71 2.9 S 26 32 14 17 1015.3 1015.1 0.0
26/08:00pm 17.5 12.8 12.0 70 3.0 S 28 35 15 19 1014.8 1014.6 0.0
26/07:30pm 18.6 13.7 12.4 67 3.5 S 30 35 16 19 1014.3 1014.1 0.0
26/07:00pm 19.9 15.6 10.6 55 5.1 SSE 24 30 13 16 1013.8 1013.6 0.0
26/06:30pm 20.3 15.6 10.7 54 5.3 SSE 26 32 14 17 1013.7 1013.5 0.0
26/06:00pm 21.0 16.7 10.8 52 5.6 S 24 28 13 15 1013.3 1013.1 0.0
26/05:30pm 21.5 18.2 11.5 53 5.6 S 20 24 11 13 1013.0 1012.8 0.0
26/05:00pm 21.7 18.0 11.4 52 5.8 S 22 26 12 14 1012.8 1012.6 0.0
26/04:30pm 22.6 19.5 12.3 52 5.9 S 20 24 11 13 1012.8 1012.6 0.0
26/04:00pm 23.6 21.1 12.3 49 6.5 WSW 17 22 9 12 1012.5 1012.3 0.0
26/03:30pm 23.3 20.7 12.0 49 6.4 SW 17 24 9 13 1012.3 1012.1 0.0
26/03:00pm 23.0 20.4 12.0 50 6.3 SW 17 24 9 13 1012.0 1011.8 0.0
26/02:30pm 23.4 21.2 12.1 49 6.4 WSW 15 22 8 12 1012.0 1011.8 0.0
26/02:00pm 23.3 21.6 12.3 50 6.3 SW 13 20 7 11 1012.1 1011.9 0.0
26/01:30pm 22.1 19.8 11.8 52 5.8 SSW 15 22 8 12 1012.4 1012.2 0.0
26/01:00pm 21.9 19.1 11.3 51 5.9 SSW 17 24 9 13 1012.8 1012.6 0.0
26/12:30pm 21.7 19.1 12.0 54 5.5 SSW 17 26 9 14 1013.0 1012.8 0.0
26/12:00pm 22.1 19.3 12.6 55 5.4 SSW 19 26 10 14 1013.6 1013.4 0.0
26/11:30am 21.1 18.0 12.3 57 5.0 SSW 20 28 11 15 1014.2 1014.0 0.0
26/11:00am 20.4 18.1 12.9 62 4.3 SSW 17 24 9 13 1014.3 1014.1 0.0
26/10:30am 20.1 18.7 14.5 70 3.3 SSW 15 22 8 12 1014.3 1014.1 0.0
26/10:00am 19.3 17.8 14.3 73 2.9 S 15 19 8 10 1014.3 1014.1 0.0
26/09:30am 18.9 18.0 14.8 77 2.4 SSW 13 17 7 9 1014.4 1014.2 0.0
26/09:00am 18.6 17.3 14.7 78 2.3 SSW 15 19 8 10 1014.0 1013.8 0.0
26/08:30am 18.1 17.4 14.4 79 2.1 SSW 11 13 6 7 1013.7 1013.5 0.0
26/08:00am 17.8 16.3 14.1 79 2.1 SSW 15 20 8 11 1013.4 1013.2 0.0
26/07:30am 17.6 16.0 13.9 79 2.1 SSW 15 19 8 10 1013.1 1012.9 0.0
26/07:00am 17.8 15.5 14.1 79 2.1 SSW 19 22 10 12 1012.8 1012.6 0.0
26/06:30am 17.7 15.7 14.0 79 2.1 S 17 20 9 11 1012.2 1012.0 0.0
26/06:00am 17.5 15.8 13.6 78 2.2 S 15 19 8 10 1012.3 1012.1 0.0
26/05:30am 17.8 16.1 13.5 76 2.4 S 15 19 8 10 1012.1 1011.9 0.0
26/05:00am 17.9 16.1 13.2 74 2.7 SSW 15 20 8 11 1011.7 1011.5 0.0
26/04:30am 18.2 16.7 13.1 72 2.9 S 13 15 7 8 1011.6 1011.4 0.0
26/04:00am 18.8 16.5 13.0 69 3.3 S 17 19 9 10 1011.3 1011.1 0.0
26/03:30am 19.4 17.5 13.1 67 3.6 SSW 15 19 8 10 1011.7 1011.5 0.0
26/03:00am 19.7 16.8 12.9 65 3.9 S 20 28 11 15 1011.6 1011.4 0.0
26/02:30am 20.0 17.6 12.7 63 4.1 S 17 24 9 13 1011.8 1011.6 0.0
26/02:00am 20.4 17.5 12.9 62 4.3 S 20 28 11 15 1011.7 1011.5 0.0
26/01:30am 20.6 17.6 12.6 60 4.5 SSW 20 28 11 15 1011.5 1011.3 0.0
26/01:00am 21.1 15.6 12.3 57 5.0 SSW 33 43 18 23 1011.4 1011.2 0.0
26/12:30am 21.8 17.2 13.4 59 4.9 SSW 30 43 16 23 1010.9 1010.7 0.0
26/12:00am 23.6 20.4 12.0 48 6.6 W 20 32 11 17 1010.0 1009.9 0.0
 
Date/Time
CST
Temp
°C
App
Temp
°C
Dew
Point
Rel
Hum
%
Delta-T
°C
Wind Press
QNH
hPa
Press
MSL
hPa
Rain
since 9 am
mm
Dir
 
Spd
km/h
Gust
km/h
Spd
kts
Gust
kts
25/11:30pm 23.6 21.0 12.0 48 6.6 NW 17 20 9 11 1009.5 1009.4 0.0

Other Formats:

Comma delimited format used in spreadsheet applications
http://www.bom.gov.au/fwo/IDS60801/IDS60801.94476.axf

JavaScript Object Notation format (JSON) in row-major order
http://www.bom.gov.au/fwo/IDS60801/IDS60801.94476.json